createdAt,value
2022-12-03T00:00:44.298Z,2.80
2022-12-03T00:03:14.252Z,2.80
2022-12-03T00:05:48.747Z,2.80
2022-12-03T00:08:19.384Z,2.80
2022-12-03T00:10:49.199Z,2.80
2022-12-03T00:13:18.980Z,2.70
2022-12-03T00:15:51.427Z,2.70
2022-12-03T00:18:21.264Z,2.60
2022-12-03T00:20:51.035Z,2.60
2022-12-03T00:23:20.904Z,2.60
2022-12-03T00:25:50.728Z,2.60
2022-12-03T00:28:20.505Z,2.60
2022-12-03T00:30:54.287Z,2.70
2022-12-03T00:33:24.538Z,2.80
2022-12-03T00:35:54.349Z,2.80
2022-12-03T00:38:24.160Z,2.80
2022-12-03T00:40:53.966Z,2.80
2022-12-03T00:43:23.731Z,2.90
2022-12-03T00:45:56.389Z,2.80
2022-12-03T00:48:26.189Z,2.80
2022-12-03T00:50:56.189Z,2.90
2022-12-03T00:53:25.998Z,2.90
2022-12-03T00:55:55.819Z,2.90
2022-12-03T00:58:25.644Z,2.90
2022-12-03T01:00:58.011Z,2.90
2022-12-03T01:03:27.766Z,2.90
2022-12-03T01:05:57.714Z,2.90
2022-12-03T01:08:27.503Z,2.80
2022-12-03T01:10:57.368Z,2.80
2022-12-03T01:13:27.135Z,2.80
2022-12-03T01:15:59.487Z,2.80
2022-12-03T01:18:29.418Z,2.80
2022-12-03T01:20:59.168Z,2.80
2022-12-03T01:23:28.900Z,2.90
2022-12-03T01:25:58.743Z,2.90
2022-12-03T01:28:29.364Z,2.90
2022-12-03T01:31:14.243Z,2.90
2022-12-03T01:33:43.827Z,2.90
2022-12-03T01:36:13.614Z,2.90
2022-12-03T01:38:43.320Z,2.90
2022-12-03T01:41:13.080Z,2.90
2022-12-03T01:43:42.872Z,2.90
2022-12-03T01:46:16.406Z,2.90
2022-12-03T01:48:46.540Z,2.90
2022-12-03T01:51:17.543Z,2.90
2022-12-03T01:53:48.035Z,2.90
2022-12-03T01:56:19.763Z,2.90
2022-12-03T01:58:49.847Z,2.90
2022-12-03T02:01:22.561Z,2.80
2022-12-03T02:03:52.448Z,2.90
2022-12-03T02:06:24.319Z,2.90
2022-12-03T02:08:59.542Z,2.80
2022-12-03T02:11:32.797Z,2.80
2022-12-03T02:14:05.101Z,2.90
2022-12-03T02:16:38.072Z,2.80
2022-12-03T02:19:11.492Z,2.80
2022-12-03T02:21:47.125Z,2.80
2022-12-03T02:24:24.429Z,2.80
2022-12-03T02:26:57.115Z,2.80
2022-12-03T02:29:27.123Z,2.80
2022-12-03T02:31:57.041Z,2.80
2022-12-03T02:34:38.713Z,2.80
2022-12-03T02:37:12.446Z,2.80
2022-12-03T02:39:46.414Z,2.80
2022-12-03T02:42:32.471Z,2.80
2022-12-03T02:45:06.018Z,2.70
2022-12-03T02:47:38.019Z,2.80
2022-12-03T02:50:09.504Z,2.80
2022-12-03T02:52:39.833Z,2.80
2022-12-03T02:55:11.417Z,2.70
2022-12-03T02:57:44.600Z,2.80
2022-12-03T03:00:16.357Z,2.80
2022-12-03T03:02:47.989Z,2.80
2022-12-03T03:05:18.632Z,2.80
2022-12-03T03:07:48.954Z,2.90
2022-12-03T03:10:21.356Z,2.90
2022-12-03T03:12:56.756Z,2.80
2022-12-03T03:15:27.487Z,2.80
2022-12-03T03:17:57.426Z,2.80
2022-12-03T03:20:27.261Z,2.70
2022-12-03T03:22:57.278Z,2.80
2022-12-03T03:25:27.045Z,2.80
2022-12-03T03:27:59.390Z,2.80
2022-12-03T03:30:29.312Z,2.80
2022-12-03T03:32:59.189Z,2.80
2022-12-03T03:35:29.413Z,2.80
2022-12-03T03:38:00.947Z,2.80
2022-12-03T03:40:31.377Z,2.80
2022-12-03T03:43:04.639Z,2.80
2022-12-03T03:45:34.522Z,2.80
2022-12-03T03:48:04.536Z,2.90
2022-12-03T03:50:35.262Z,2.80
2022-12-03T03:53:06.774Z,2.80
2022-12-03T03:55:37.208Z,2.70
2022-12-03T03:58:09.915Z,2.60
2022-12-03T04:00:42.800Z,2.60
2022-12-03T04:03:13.596Z,2.70
2022-12-03T04:05:43.645Z,2.70
2022-12-03T04:08:13.643Z,2.60
2022-12-03T04:11:01.450Z,2.70
2022-12-03T04:13:33.944Z,2.70
2022-12-03T04:16:03.816Z,2.70
2022-12-03T04:18:45.840Z,2.70
2022-12-03T04:21:30.985Z,2.70
2022-12-03T04:24:00.793Z,2.70
2022-12-03T04:26:43.339Z,2.70
2022-12-03T04:29:16.099Z,2.80
2022-12-03T04:31:59.111Z,2.70
2022-12-03T04:34:41.543Z,2.70
2022-12-03T04:37:11.637Z,2.70
2022-12-03T04:39:41.572Z,2.70
2022-12-03T04:42:11.489Z,2.60
2022-12-03T04:44:43.888Z,2.60
2022-12-03T04:47:15.559Z,2.60
2022-12-03T04:49:47.418Z,2.60
2022-12-03T04:52:19.035Z,2.60
2022-12-03T04:54:49.256Z,2.70
2022-12-03T04:57:19.060Z,2.60
2022-12-03T04:59:51.442Z,2.60
2022-12-03T05:02:23.188Z,2.60
2022-12-03T05:04:53.215Z,2.60
2022-12-03T05:07:23.232Z,2.60
2022-12-03T05:09:53.104Z,2.60
2022-12-03T05:12:22.919Z,2.60
2022-12-03T05:14:55.629Z,2.70
2022-12-03T05:17:25.736Z,2.70
2022-12-03T05:20:08.036Z,2.60
2022-12-03T05:22:37.979Z,2.60
2022-12-03T05:25:08.961Z,2.60
2022-12-03T05:27:38.806Z,2.60
2022-12-03T05:30:12.768Z,2.60
2022-12-03T05:32:42.508Z,2.60
2022-12-03T05:35:13.200Z,2.60
2022-12-03T05:37:42.962Z,2.60
2022-12-03T05:40:14.249Z,2.70
2022-12-03T05:42:56.773Z,2.70
2022-12-03T05:45:30.734Z,2.60
2022-12-03T05:48:01.698Z,2.60
2022-12-03T05:50:33.296Z,2.60
2022-12-03T05:53:03.298Z,2.70
2022-12-03T05:55:33.731Z,2.70
2022-12-03T05:58:03.488Z,2.60
2022-12-03T06:00:42.914Z,2.70
2022-12-03T06:03:13.116Z,2.70
2022-12-03T06:05:43.055Z,2.70
2022-12-03T06:08:12.886Z,2.70
2022-12-03T06:10:42.828Z,2.70
2022-12-03T06:13:12.606Z,2.70
2022-12-03T06:15:45.030Z,2.70
2022-12-03T06:18:15.121Z,2.70
2022-12-03T06:20:44.908Z,2.70
2022-12-03T06:23:14.763Z,2.80
2022-12-03T06:25:44.541Z,2.70
2022-12-03T06:28:14.323Z,2.80
2022-12-03T06:30:47.015Z,2.80
2022-12-03T06:33:16.865Z,2.80
2022-12-03T06:35:46.694Z,2.80
2022-12-03T06:38:16.592Z,2.80
2022-12-03T06:40:46.327Z,2.80
2022-12-03T06:43:16.115Z,2.80
2022-12-03T06:45:48.820Z,2.80
2022-12-03T06:48:18.605Z,2.90
2022-12-03T06:51:03.253Z,2.90
2022-12-03T06:53:33.048Z,2.80
2022-12-03T06:56:02.809Z,2.80
2022-12-03T06:58:32.596Z,2.90
2022-12-03T07:01:04.980Z,2.90
2022-12-03T07:03:34.735Z,2.90
2022-12-03T07:06:04.552Z,2.90
2022-12-03T07:08:34.474Z,2.90
2022-12-03T07:11:04.360Z,2.90
2022-12-03T07:13:34.159Z,2.90
2022-12-03T07:16:06.923Z,2.90
2022-12-03T07:18:36.769Z,2.90
2022-12-03T07:21:06.803Z,3.00
2022-12-03T07:23:36.536Z,3.00
2022-12-03T07:26:06.384Z,3.00
2022-12-03T07:28:36.147Z,3.00
2022-12-03T07:31:08.828Z,3.00
2022-12-03T07:33:38.676Z,3.00
2022-12-03T07:36:09.164Z,3.00
2022-12-03T07:38:39.208Z,3.10
2022-12-03T07:41:09.224Z,3.00
2022-12-03T07:43:38.973Z,3.00
2022-12-03T07:46:11.511Z,3.00
2022-12-03T07:48:41.312Z,3.00
2022-12-03T07:51:15.187Z,3.10
2022-12-03T07:53:45.487Z,3.10
2022-12-03T07:56:15.267Z,3.00
2022-12-03T07:58:45.109Z,3.00
2022-12-03T08:01:17.637Z,3.00
2022-12-03T08:03:47.443Z,3.00
2022-12-03T08:06:17.254Z,3.00
2022-12-03T08:08:47.040Z,3.00
2022-12-03T08:11:17.820Z,3.10
2022-12-03T08:13:47.643Z,3.20
2022-12-03T08:16:22.062Z,3.10
2022-12-03T08:18:52.487Z,3.10
2022-12-03T08:21:24.081Z,3.10
2022-12-03T08:23:53.905Z,3.20
2022-12-03T08:26:26.501Z,3.20
2022-12-03T08:28:57.044Z,3.30
2022-12-03T08:31:33.796Z,3.30
2022-12-03T08:34:19.332Z,3.30
2022-12-03T08:36:49.869Z,3.40
2022-12-03T08:39:33.267Z,3.30
2022-12-03T08:42:24.620Z,3.40
2022-12-03T08:44:55.453Z,3.40
2022-12-03T08:47:28.364Z,3.40
2022-12-03T08:50:01.308Z,3.40
2022-12-03T08:52:34.952Z,3.50
2022-12-03T08:55:31.444Z,3.40
2022-12-03T08:58:01.482Z,3.50
2022-12-03T09:00:31.311Z,3.50
2022-12-03T09:03:04.199Z,3.50
2022-12-03T09:05:34.913Z,3.50
2022-12-03T09:08:04.750Z,3.50
2022-12-03T09:10:34.587Z,3.60
2022-12-03T09:13:04.456Z,3.50
2022-12-03T09:15:34.255Z,3.60
2022-12-03T09:18:06.831Z,3.70
2022-12-03T09:20:36.633Z,3.60
2022-12-03T09:23:06.554Z,3.60
2022-12-03T09:25:36.370Z,3.50
2022-12-03T09:28:06.455Z,3.60
2022-12-03T09:30:36.339Z,3.60
2022-12-03T09:33:08.743Z,3.60
2022-12-03T09:35:38.587Z,3.70
2022-12-03T09:38:08.329Z,3.70
2022-12-03T09:40:38.223Z,3.70
2022-12-03T09:43:08.482Z,3.80
2022-12-03T09:45:38.415Z,3.60
2022-12-03T09:48:10.856Z,3.50
2022-12-03T09:50:44.552Z,3.50
2022-12-03T09:53:18.510Z,3.60
2022-12-03T09:55:49.840Z,3.60
2022-12-03T09:58:23.131Z,3.60
2022-12-03T10:00:54.986Z,3.70
2022-12-03T10:03:31.011Z,3.70
2022-12-03T10:06:00.903Z,3.80
2022-12-03T10:08:32.493Z,3.70
2022-12-03T10:11:02.524Z,3.60
2022-12-03T10:13:34.703Z,3.60
2022-12-03T10:16:04.708Z,3.80
2022-12-03T10:18:41.405Z,3.90
2022-12-03T10:21:20.517Z,4.10
2022-12-03T10:23:55.155Z,3.80
2022-12-03T10:26:41.355Z,3.90
2022-12-03T10:29:15.772Z,3.90
2022-12-03T10:31:45.669Z,4.10
2022-12-03T10:34:27.252Z,4.10
2022-12-03T10:37:15.565Z,4.10
2022-12-03T10:40:05.383Z,4.10
2022-12-03T10:42:38.179Z,3.90
2022-12-03T10:45:20.735Z,4.00
2022-12-03T10:48:14.668Z,3.80
2022-12-03T10:50:55.768Z,3.70
2022-12-03T10:53:29.499Z,3.70
2022-12-03T10:56:02.025Z,3.70
2022-12-03T10:58:33.627Z,3.70
2022-12-03T11:01:05.611Z,3.50
2022-12-03T11:03:39.201Z,3.50
2022-12-03T11:06:17.998Z,3.60
2022-12-03T11:08:56.198Z,3.60
2022-12-03T11:11:29.188Z,3.60
2022-12-03T11:14:00.111Z,3.50
2022-12-03T11:17:09.436Z,3.50
2022-12-03T11:19:48.968Z,3.60
2022-12-03T11:22:43.781Z,3.70
2022-12-03T11:25:53.143Z,3.60
2022-12-03T11:28:39.359Z,3.50
2022-12-03T11:31:15.083Z,3.40
2022-12-03T11:33:44.972Z,3.40
2022-12-03T11:36:31.699Z,3.50
2022-12-03T11:39:12.629Z,3.50
2022-12-03T11:41:42.402Z,3.60
2022-12-03T11:44:33.870Z,3.60
2022-12-03T11:47:16.581Z,3.50
2022-12-03T11:49:50.885Z,3.40
2022-12-03T11:52:44.215Z,3.50
2022-12-03T11:55:22.208Z,3.40
2022-12-03T11:57:52.088Z,3.40
2022-12-03T12:00:25.228Z,3.40
2022-12-03T12:02:57.476Z,3.50
2022-12-03T12:05:32.578Z,3.40
2022-12-03T12:08:04.354Z,3.50
2022-12-03T12:10:46.693Z,3.50
2022-12-03T12:13:30.929Z,3.50
2022-12-03T12:16:01.497Z,3.40
2022-12-03T12:18:43.084Z,3.40
2022-12-03T12:21:43.470Z,3.30
2022-12-03T12:24:36.266Z,3.40
2022-12-03T12:27:10.542Z,3.30
2022-12-03T12:29:42.342Z,3.20
2022-12-03T12:32:17.958Z,3.30
2022-12-03T12:34:49.837Z,3.40
2022-12-03T12:37:25.267Z,3.30
2022-12-03T12:39:57.172Z,3.20
2022-12-03T12:42:40.217Z,3.30
2022-12-03T12:45:17.864Z,3.20
2022-12-03T12:47:52.324Z,3.10
2022-12-03T12:50:22.512Z,3.10
2022-12-03T12:52:55.011Z,3.10
2022-12-03T12:55:26.108Z,3.10
2022-12-03T12:58:02.239Z,3.00
2022-12-03T13:00:32.101Z,3.00
2022-12-03T13:03:04.091Z,3.00
2022-12-03T13:05:41.105Z,3.10
2022-12-03T13:08:24.117Z,3.10
2022-12-03T13:10:55.282Z,2.90
2022-12-03T13:13:37.350Z,3.00
2022-12-03T13:16:14.147Z,3.10
2022-12-03T13:18:47.690Z,3.20
2022-12-03T13:21:27.051Z,3.20
2022-12-03T13:23:58.511Z,3.10
2022-12-03T13:26:38.234Z,3.20
2022-12-03T13:29:19.075Z,3.10
2022-12-03T13:31:54.573Z,3.00
2022-12-03T13:34:26.499Z,3.10
2022-12-03T13:36:58.791Z,3.00
2022-12-03T13:39:35.038Z,3.10
2022-12-03T13:42:31.452Z,3.10
2022-12-03T13:45:05.331Z,3.00
2022-12-03T13:47:35.149Z,3.00
2022-12-03T13:50:12.827Z,3.10
2022-12-03T13:52:42.675Z,3.10
2022-12-03T13:55:17.572Z,3.00
2022-12-03T13:57:47.395Z,3.10
2022-12-03T14:00:20.439Z,3.10
2022-12-03T14:02:50.470Z,3.10
2022-12-03T14:05:21.276Z,3.10
2022-12-03T14:07:51.202Z,3.10
2022-12-03T14:10:21.162Z,3.10
2022-12-03T14:12:50.943Z,3.10
2022-12-03T14:15:24.925Z,3.00
2022-12-03T14:17:55.367Z,3.00
2022-12-03T14:20:25.206Z,3.00
2022-12-03T14:22:59.361Z,2.90
2022-12-03T14:25:29.665Z,2.90
2022-12-03T14:28:00.786Z,2.90
2022-12-03T14:30:33.128Z,2.90
2022-12-03T14:33:02.945Z,2.90
2022-12-03T14:35:32.739Z,2.90
2022-12-03T14:38:02.536Z,2.90
2022-12-03T14:40:32.319Z,2.80
2022-12-03T14:43:03.296Z,2.90
2022-12-03T14:45:35.735Z,2.80
2022-12-03T14:48:05.650Z,3.00
2022-12-03T14:50:35.409Z,2.90
2022-12-03T14:53:05.188Z,3.00
2022-12-03T14:55:35.050Z,3.00
2022-12-03T14:58:04.907Z,3.00
2022-12-03T15:00:37.296Z,3.10
2022-12-03T15:03:07.218Z,3.10
2022-12-03T15:05:40.003Z,3.00
2022-12-03T15:08:09.908Z,3.00
2022-12-03T15:10:39.696Z,2.80
2022-12-03T15:13:09.451Z,2.90
2022-12-03T15:15:41.906Z,2.90
2022-12-03T15:18:11.776Z,2.80
2022-12-03T15:20:41.660Z,2.90
2022-12-03T15:23:14.457Z,2.80
2022-12-03T15:25:44.709Z,2.80
2022-12-03T15:28:14.443Z,2.80
2022-12-03T15:30:46.835Z,2.80
2022-12-03T15:33:16.683Z,2.90
2022-12-03T15:35:46.508Z,2.90
2022-12-03T15:38:16.271Z,2.90
2022-12-03T15:40:46.309Z,2.90
2022-12-03T15:43:16.119Z,2.80
2022-12-03T15:45:48.581Z,2.80
2022-12-03T15:48:18.428Z,2.90
2022-12-03T15:50:48.184Z,2.80
2022-12-03T15:53:17.971Z,2.80
2022-12-03T15:55:47.801Z,2.70
2022-12-03T15:58:17.582Z,2.80
2022-12-03T16:00:49.912Z,2.70
2022-12-03T16:03:19.714Z,2.70
2022-12-03T16:05:49.595Z,2.70
2022-12-03T16:08:25.762Z,2.60
2022-12-03T16:10:55.763Z,2.50
2022-12-03T16:13:28.580Z,2.40
2022-12-03T16:16:01.165Z,2.40
2022-12-03T16:18:32.143Z,2.50
2022-12-03T16:21:01.930Z,2.60
2022-12-03T16:23:31.732Z,2.60
2022-12-03T16:26:01.465Z,2.60
2022-12-03T16:28:31.225Z,2.50
2022-12-03T16:31:03.659Z,2.50
2022-12-03T16:33:33.772Z,2.50
2022-12-03T16:36:03.558Z,2.50
2022-12-03T16:38:33.715Z,2.50
2022-12-03T16:41:03.903Z,2.40
2022-12-03T16:43:38.407Z,2.40
2022-12-03T16:46:26.145Z,2.50
2022-12-03T16:48:58.056Z,2.40
2022-12-03T16:51:30.263Z,2.30
2022-12-03T16:54:00.093Z,2.20
2022-12-03T16:56:29.885Z,2.20
2022-12-03T16:58:59.728Z,2.40
2022-12-03T17:01:32.155Z,2.40
2022-12-03T17:04:01.968Z,2.40
2022-12-03T17:06:31.788Z,2.40
2022-12-03T17:09:01.630Z,2.40
2022-12-03T17:11:31.405Z,2.30
2022-12-03T17:14:01.219Z,2.30
2022-12-03T17:16:33.646Z,2.20
2022-12-03T17:19:03.574Z,2.20
2022-12-03T17:21:35.267Z,2.20
2022-12-03T17:24:05.246Z,2.20
2022-12-03T17:26:35.180Z,2.20
2022-12-03T17:29:05.018Z,2.20
2022-12-03T17:31:41.893Z,2.20
2022-12-03T17:34:12.541Z,2.20
2022-12-03T17:36:42.330Z,2.30
2022-12-03T17:39:12.152Z,2.30
2022-12-03T17:41:41.935Z,2.30
2022-12-03T17:44:16.368Z,2.30
2022-12-03T17:46:51.830Z,2.30
2022-12-03T17:49:23.770Z,2.30
2022-12-03T17:51:56.725Z,2.30
2022-12-03T17:54:43.244Z,2.30
2022-12-03T17:57:16.433Z,2.30
2022-12-03T17:59:46.268Z,2.30
2022-12-03T18:02:18.767Z,2.40
2022-12-03T18:04:48.718Z,2.30
2022-12-03T18:07:18.544Z,2.30
2022-12-03T18:09:48.396Z,2.30
2022-12-03T18:12:18.211Z,2.40
2022-12-03T18:14:47.967Z,2.40
2022-12-03T18:17:20.325Z,2.30
2022-12-03T18:19:50.176Z,2.30
2022-12-03T18:22:21.453Z,2.30
2022-12-03T18:24:51.921Z,2.30
2022-12-03T18:27:23.092Z,2.30
2022-12-03T18:29:53.271Z,2.30
2022-12-03T18:32:29.449Z,2.30
2022-12-03T18:34:59.876Z,2.30
2022-12-03T18:37:31.395Z,2.30
2022-12-03T18:40:02.056Z,2.30
2022-12-03T18:42:32.791Z,2.40
2022-12-03T18:45:02.566Z,2.40
2022-12-03T18:47:35.049Z,2.40
2022-12-03T18:50:04.847Z,2.30
2022-12-03T18:52:34.647Z,2.40
2022-12-03T18:55:04.587Z,2.30
2022-12-03T18:57:34.419Z,2.30
2022-12-03T19:00:07.870Z,2.30
2022-12-03T19:05:32.878Z,2.30
2022-12-03T19:08:03.025Z,2.20
2022-12-03T19:10:32.863Z,2.10
2022-12-03T19:13:03.658Z,2.10
2022-12-03T19:15:33.491Z,2.10
2022-12-03T19:18:07.464Z,2.10
2022-12-03T19:20:37.475Z,2.00
2022-12-03T19:23:07.327Z,2.10
2022-12-03T19:25:37.179Z,2.10
2022-12-03T19:28:07.332Z,2.10
2022-12-03T19:30:37.169Z,2.10
2022-12-03T19:33:10.971Z,2.00
2022-12-03T19:35:42.512Z,1.90
2022-12-03T19:38:12.323Z,1.90
2022-12-03T19:40:42.166Z,1.90
2022-12-03T19:43:12.015Z,1.90
2022-12-03T19:45:41.852Z,2.00
2022-12-03T19:48:14.273Z,2.00
2022-12-03T19:51:02.935Z,1.90
2022-12-03T19:53:41.759Z,1.90
2022-12-03T19:56:13.672Z,1.90
2022-12-03T19:58:45.167Z,2.00
2022-12-03T20:01:17.296Z,1.90
2022-12-03T20:03:51.707Z,1.90
2022-12-03T20:06:23.137Z,1.90
2022-12-03T20:08:53.583Z,2.00
2022-12-03T20:11:26.107Z,1.90
2022-12-03T20:13:57.604Z,2.00
2022-12-03T20:16:28.357Z,2.00
2022-12-03T20:19:02.923Z,2.00
2022-12-03T20:21:33.276Z,2.10
2022-12-03T20:24:03.498Z,2.00
2022-12-03T20:26:33.567Z,2.00
2022-12-03T20:29:04.224Z,2.00
2022-12-03T20:31:35.252Z,2.00
2022-12-03T20:34:07.908Z,1.90
2022-12-03T20:36:37.879Z,1.90
2022-12-03T20:39:10.232Z,1.80
2022-12-03T20:41:40.357Z,1.90
2022-12-03T20:44:11.163Z,1.80
2022-12-03T20:46:41.058Z,1.80
2022-12-03T20:49:13.447Z,1.80
2022-12-03T20:51:43.531Z,1.90
2022-12-03T20:54:13.447Z,1.80
2022-12-03T20:56:43.339Z,1.80
2022-12-03T20:59:15.254Z,1.80
2022-12-03T21:01:45.640Z,1.80
2022-12-03T21:04:18.098Z,1.80
2022-12-03T21:06:48.318Z,1.80
2022-12-03T21:09:18.127Z,1.80
2022-12-03T21:11:47.928Z,1.80
2022-12-03T21:14:17.720Z,1.70
2022-12-03T21:19:42.028Z,1.90
2022-12-03T21:22:11.873Z,1.90
2022-12-03T21:24:42.784Z,1.90
2022-12-03T21:27:15.727Z,1.90
2022-12-03T21:29:49.819Z,1.80
2022-12-03T21:32:19.588Z,1.90
2022-12-03T21:34:52.066Z,1.90
2022-12-03T21:37:22.027Z,1.90
2022-12-03T21:39:52.014Z,1.90
2022-12-03T21:42:36.034Z,1.80
2022-12-03T21:45:08.356Z,1.90
2022-12-03T21:47:38.259Z,1.80
2022-12-03T21:50:13.785Z,1.90
2022-12-03T21:52:44.048Z,2.00
2022-12-03T21:55:14.007Z,1.90
2022-12-03T21:57:43.777Z,1.90
2022-12-03T22:00:14.937Z,2.00
2022-12-03T22:02:45.003Z,1.90
2022-12-03T22:05:18.239Z,1.90
2022-12-03T22:07:48.140Z,1.80
2022-12-03T22:10:17.959Z,1.90
2022-12-03T22:12:47.762Z,1.90
2022-12-03T22:15:19.390Z,1.90
2022-12-03T22:17:49.656Z,2.00
2022-12-03T22:20:22.292Z,2.00
2022-12-03T22:22:52.146Z,1.90
2022-12-03T22:25:21.943Z,1.90
2022-12-03T22:27:51.817Z,1.90
2022-12-03T22:30:21.999Z,1.90
2022-12-03T22:32:51.778Z,1.90
2022-12-03T22:35:24.143Z,2.00
2022-12-03T22:37:53.963Z,2.00
2022-12-03T22:40:23.736Z,2.00
2022-12-03T22:42:53.556Z,2.00
2022-12-03T22:45:23.316Z,2.00
2022-12-03T22:47:53.087Z,1.90
2022-12-03T22:50:25.427Z,1.90
2022-12-03T22:52:55.255Z,1.90
2022-12-03T22:55:25.021Z,1.90
2022-12-03T22:57:54.805Z,2.00
2022-12-03T23:00:34.403Z,1.90
2022-12-03T23:03:04.754Z,1.90
2022-12-03T23:05:39.456Z,2.00
2022-12-03T23:08:11.379Z,2.00
2022-12-03T23:10:45.381Z,2.00
2022-12-03T23:13:15.836Z,2.00
2022-12-03T23:15:47.103Z,1.90
2022-12-03T23:18:17.104Z,1.90
2022-12-03T23:20:51.255Z,1.90
2022-12-03T23:23:22.324Z,1.90
2022-12-03T23:25:59.979Z,1.90
2022-12-03T23:28:31.724Z,1.90
2022-12-03T23:31:01.871Z,1.90
2022-12-03T23:33:37.935Z,1.90
2022-12-03T23:36:11.817Z,1.90
2022-12-03T23:38:42.031Z,1.90
2022-12-03T23:41:14.274Z,2.00
2022-12-03T23:43:44.550Z,2.10
2022-12-03T23:46:16.429Z,2.00
2022-12-03T23:48:47.037Z,2.00
2022-12-03T23:51:21.526Z,2.00
2022-12-03T23:53:51.150Z,2.10
2022-12-03T23:56:22.515Z,2.10
2022-12-03T23:58:52.353Z,2.10
